sensor_id;sensor_type;location;lat;lon;timestamp;pressure;altitude;pressure_sealevel;temperature;humidity
68793;BME280;55778;54.346;10.210;2023-07-31T00:01:01;100406.69;;;13.61;100.00
68793;BME280;55778;54.346;10.210;2023-07-31T00:03:26;100403.41;;;13.66;100.00
68793;BME280;55778;54.346;10.210;2023-07-31T00:05:51;100395.03;;;13.67;100.00
68793;BME280;55778;54.346;10.210;2023-07-31T00:08:17;100393.63;;;13.79;100.00
68793;BME280;55778;54.346;10.210;2023-07-31T00:10:42;100392.59;;;13.80;100.00
68793;BME280;55778;54.346;10.210;2023-07-31T00:13:07;100377.56;;;13.76;100.00
68793;BME280;55778;54.346;10.210;2023-07-31T00:15:33;100376.00;;;13.74;100.00
68793;BME280;55778;54.346;10.210;2023-07-31T00:17:58;100368.31;;;13.69;100.00
68793;BME280;55778;54.346;10.210;2023-07-31T00:20:23;100361.81;;;13.70;100.00
68793;BME280;55778;54.346;10.210;2023-07-31T00:22:49;100376.53;;;13.69;100.00
68793;BME280;55778;54.346;10.210;2023-07-31T00:25:14;100362.84;;;13.69;100.00
68793;BME280;55778;54.346;10.210;2023-07-31T00:27:40;100366.59;;;13.68;100.00
68793;BME280;55778;54.346;10.210;2023-07-31T00:30:10;100372.44;;;13.65;100.00
68793;BME280;55778;54.346;10.210;2023-07-31T00:32:35;100377.56;;;13.68;100.00
68793;BME280;55778;54.346;10.210;2023-07-31T00:35:01;100370.56;;;13.66;100.00
68793;BME280;55778;54.346;10.210;2023-07-31T00:37:27;100366.97;;;13.65;100.00
68793;BME280;55778;54.346;10.210;2023-07-31T00:39:52;100364.22;;;13.65;100.00
68793;BME280;55778;54.346;10.210;2023-07-31T00:42:17;100358.75;;;13.65;100.00
68793;BME280;55778;54.346;10.210;2023-07-31T00:44:43;100360.84;;;13.55;100.00
68793;BME280;55778;54.346;10.210;2023-07-31T00:47:08;100370.22;;;13.61;100.00
68793;BME280;55778;54.346;10.210;2023-07-31T00:49:33;100369.88;;;13.64;100.00
68793;BME280;55778;54.346;10.210;2023-07-31T00:51:59;100370.03;;;13.62;100.00
68793;BME280;55778;54.346;10.210;2023-07-31T00:54:25;100370.41;;;13.59;100.00
68793;BME280;55778;54.346;10.210;2023-07-31T00:56:52;100360.47;;;13.58;100.00
68793;BME280;55778;54.346;10.210;2023-07-31T00:59:18;100348.31;;;13.61;100.00
68793;BME280;55778;54.346;10.210;2023-07-31T01:01:44;100347.28;;;13.62;100.00
68793;BME280;55778;54.346;10.210;2023-07-31T01:04:10;100333.41;;;13.63;100.00
68793;BME280;55778;54.346;10.210;2023-07-31T01:06:45;100328.28;;;13.60;100.00
68793;BME280;55778;54.346;10.210;2023-07-31T01:09:23;100331.88;;;13.61;100.00
68793;BME280;55778;54.346;10.210;2023-07-31T01:11:53;100335.66;;;13.60;100.00
68793;BME280;55778;54.346;10.210;2023-07-31T01:14:18;100334.81;;;13.59;100.00
68793;BME280;55778;54.346;10.210;2023-07-31T01:16:44;100330.53;;;13.57;100.00
68793;BME280;55778;54.346;10.210;2023-07-31T01:19:11;100328.31;;;13.52;100.00
68793;BME280;55778;54.346;10.210;2023-07-31T01:21:59;100328.50;;;13.51;100.00
68793;BME280;55778;54.346;10.210;2023-07-31T01:27:17;100326.63;;;13.51;100.00
68793;BME280;55778;54.346;10.210;2023-07-31T01:32:17;100314.13;;;13.49;100.00
68793;BME280;55778;54.346;10.210;2023-07-31T01:34:44;100311.75;;;13.46;100.00
68793;BME280;55778;54.346;10.210;2023-07-31T01:37:09;100304.91;;;13.42;100.00
68793;BME280;55778;54.346;10.210;2023-07-31T01:39:34;100302.53;;;13.39;100.00
68793;BME280;55778;54.346;10.210;2023-07-31T01:42:00;100303.38;;;13.39;100.00
68793;BME280;55778;54.346;10.210;2023-07-31T01:44:25;100307.13;;;13.38;100.00
68793;BME280;55778;54.346;10.210;2023-07-31T01:46:51;100300.50;;;13.33;100.00
68793;BME280;55778;54.346;10.210;2023-07-31T01:49:16;100297.91;;;13.31;100.00
68793;BME280;55778;54.346;10.210;2023-07-31T01:51:41;100285.81;;;13.26;100.00
68793;BME280;55778;54.346;10.210;2023-07-31T01:54:07;100286.81;;;13.25;100.00
68793;BME280;55778;54.346;10.210;2023-07-31T01:56:32;100286.16;;;13.23;100.00
68793;BME280;55778;54.346;10.210;2023-07-31T01:58:57;100280.16;;;13.19;100.00
68793;BME280;55778;54.346;10.210;2023-07-31T02:01:23;100279.50;;;13.17;100.00
68793;BME280;55778;54.346;10.210;2023-07-31T02:03:48;100273.16;;;13.17;100.00
68793;BME280;55778;54.346;10.210;2023-07-31T02:06:14;100276.06;;;13.15;100.00
68793;BME280;55778;54.346;10.210;2023-07-31T02:08:39;100278.63;;;13.09;100.00
68793;BME280;55778;54.346;10.210;2023-07-31T02:11:04;100261.22;;;13.10;100.00
68793;BME280;55778;54.346;10.210;2023-07-31T02:13:30;100266.00;;;13.08;100.00
68793;BME280;55778;54.346;10.210;2023-07-31T02:15:55;100264.13;;;13.08;100.00
68793;BME280;55778;54.346;10.210;2023-07-31T02:18:20;100261.03;;;13.11;100.00
68793;BME280;55778;54.346;10.210;2023-07-31T02:20:51;100257.28;;;13.12;100.00
68793;BME280;55778;54.346;10.210;2023-07-31T02:23:17;100258.13;;;13.13;100.00
68793;BME280;55778;54.346;10.210;2023-07-31T02:25:44;100260.53;;;13.16;100.00
68793;BME280;55778;54.346;10.210;2023-07-31T02:28:09;100256.06;;;13.15;100.00
68793;BME280;55778;54.346;10.210;2023-07-31T02:30:35;100253.50;;;13.13;100.00
68793;BME280;55778;54.346;10.210;2023-07-31T02:33:00;100256.41;;;13.12;100.00
68793;BME280;55778;54.346;10.210;2023-07-31T02:35:25;100250.75;;;13.13;100.00
68793;BME280;55778;54.346;10.210;2023-07-31T02:37:51;100242.56;;;13.13;100.00
68793;BME280;55778;54.346;10.210;2023-07-31T02:40:16;100245.97;;;13.15;100.00
68793;BME280;55778;54.346;10.210;2023-07-31T02:42:42;100245.63;;;13.18;100.00
68793;BME280;55778;54.346;10.210;2023-07-31T02:45:07;100243.56;;;13.20;100.00
68793;BME280;55778;54.346;10.210;2023-07-31T02:47:33;100245.28;;;13.21;100.00
68793;BME280;55778;54.346;10.210;2023-07-31T02:49:58;100249.72;;;13.22;100.00
68793;BME280;55778;54.346;10.210;2023-07-31T02:52:25;100253.50;;;13.21;100.00
68793;BME280;55778;54.346;10.210;2023-07-31T02:54:50;100251.06;;;13.26;100.00
68793;BME280;55778;54.346;10.210;2023-07-31T02:57:15;100250.38;;;13.32;100.00
68793;BME280;55778;54.346;10.210;2023-07-31T02:59:41;100240.78;;;13.36;100.00
68793;BME280;55778;54.346;10.210;2023-07-31T03:02:06;100250.34;;;13.40;100.00
68793;BME280;55778;54.346;10.210;2023-07-31T03:04:32;100242.66;;;13.44;100.00
68793;BME280;55778;54.346;10.210;2023-07-31T03:06:57;100236.66;;;13.48;100.00
68793;BME280;55778;54.346;10.210;2023-07-31T03:09:23;100235.59;;;13.49;100.00
68793;BME280;55778;54.346;10.210;2023-07-31T03:11:48;100236.81;;;13.47;100.00
68793;BME280;55778;54.346;10.210;2023-07-31T03:14:13;100243.13;;;13.47;100.00
68793;BME280;55778;54.346;10.210;2023-07-31T03:16:39;100242.59;;;13.52;100.00
68793;BME280;55778;54.346;10.210;2023-07-31T03:19:04;100249.63;;;13.54;100.00
68793;BME280;55778;54.346;10.210;2023-07-31T03:21:29;100234.38;;;13.52;100.00
68793;BME280;55778;54.346;10.210;2023-07-31T03:23:55;100233.91;;;13.48;100.00
68793;BME280;55778;54.346;10.210;2023-07-31T03:26:20;100225.38;;;13.43;100.00
68793;BME280;55778;54.346;10.210;2023-07-31T03:28:46;100224.16;;;13.46;100.00
68793;BME280;55778;54.346;10.210;2023-07-31T03:31:11;100216.97;;;13.45;100.00
68793;BME280;55778;54.346;10.210;2023-07-31T03:33:36;100220.56;;;13.45;100.00
68793;BME280;55778;54.346;10.210;2023-07-31T03:36:02;100221.06;;;13.49;100.00
68793;BME280;55778;54.346;10.210;2023-07-31T03:38:27;100211.66;;;13.51;100.00
68793;BME280;55778;54.346;10.210;2023-07-31T03:40:53;100208.00;;;13.59;100.00
68793;BME280;55778;54.346;10.210;2023-07-31T03:43:18;100212.75;;;13.65;100.00
68793;BME280;55778;54.346;10.210;2023-07-31T03:45:43;100205.06;;;13.68;100.00
68793;BME280;55778;54.346;10.210;2023-07-31T03:48:09;100214.13;;;13.69;100.00
68793;BME280;55778;54.346;10.210;2023-07-31T03:50:34;100211.22;;;13.70;100.00
68793;BME280;55778;54.346;10.210;2023-07-31T03:53:00;100219.19;;;13.80;100.00
68793;BME280;55778;54.346;10.210;2023-07-31T03:55:25;100214.22;;;13.83;100.00
68793;BME280;55778;54.346;10.210;2023-07-31T03:57:51;100208.88;;;13.90;100.00
68793;BME280;55778;54.346;10.210;2023-07-31T04:00:16;100216.75;;;13.93;100.00
68793;BME280;55778;54.346;10.210;2023-07-31T04:02:41;100217.34;;;14.03;100.00
68793;BME280;55778;54.346;10.210;2023-07-31T04:05:07;100216.31;;;14.04;100.00
68793;BME280;55778;54.346;10.210;2023-07-31T04:07:33;100219.19;;;14.11;100.00
68793;BME280;55778;54.346;10.210;2023-07-31T04:09:59;100210.06;;;14.18;100.00
68793;BME280;55778;54.346;10.210;2023-07-31T04:12:24;100210.38;;;14.23;100.00
68793;BME280;55778;54.346;10.210;2023-07-31T04:14:50;100205.03;;;14.22;100.00
68793;BME280;55778;54.346;10.210;2023-07-31T04:17:15;100211.56;;;14.21;100.00
68793;BME280;55778;54.346;10.210;2023-07-31T04:19:40;100208.66;;;14.22;100.00
68793;BME280;55778;54.346;10.210;2023-07-31T04:22:06;100201.44;;;14.29;100.00
68793;BME280;55778;54.346;10.210;2023-07-31T04:24:31;100210.78;;;14.35;100.00
68793;BME280;55778;54.346;10.210;2023-07-31T04:26:56;100198.81;;;14.36;100.00
68793;BME280;55778;54.346;10.210;2023-07-31T04:29:22;100198.81;;;14.36;100.00
68793;BME280;55778;54.346;10.210;2023-07-31T04:31:48;100197.59;;;14.38;100.00
68793;BME280;55778;54.346;10.210;2023-07-31T04:34:14;100193.03;;;14.31;100.00
68793;BME280;55778;54.346;10.210;2023-07-31T04:36:39;100201.38;;;14.37;100.00
68793;BME280;55778;54.346;10.210;2023-07-31T04:39:05;100191.75;;;14.41;100.00
68793;BME280;55778;54.346;10.210;2023-07-31T04:41:30;100184.66;;;14.47;100.00
68793;BME280;55778;54.346;10.210;2023-07-31T04:43:55;100195.16;;;14.43;100.00
68793;BME280;55778;54.346;10.210;2023-07-31T04:46:21;100196.66;;;14.46;100.00
68793;BME280;55778;54.346;10.210;2023-07-31T04:48:46;100198.44;;;14.39;100.00
68793;BME280;55778;54.346;10.210;2023-07-31T04:51:11;100194.47;;;14.41;100.00
68793;BME280;55778;54.346;10.210;2023-07-31T04:53:37;100195.72;;;14.39;100.00
68793;BME280;55778;54.346;10.210;2023-07-31T04:56:02;100197.41;;;14.40;100.00
68793;BME280;55778;54.346;10.210;2023-07-31T04:58:28;100198.44;;;14.39;100.00
68793;BME280;55778;54.346;10.210;2023-07-31T05:00:53;100192.59;;;14.42;100.00
68793;BME280;55778;54.346;10.210;2023-07-31T05:03:19;100193.75;;;14.25;100.00
68793;BME280;55778;54.346;10.210;2023-07-31T05:05:44;100186.66;;;14.07;100.00
68793;BME280;55778;54.346;10.210;2023-07-31T05:08:09;100186.97;;;14.13;100.00
68793;BME280;55778;54.346;10.210;2023-07-31T05:10:35;100185.88;;;14.22;100.00
68793;BME280;55778;54.346;10.210;2023-07-31T05:13:00;100189.84;;;14.19;100.00
68793;BME280;55778;54.346;10.210;2023-07-31T05:15:26;100186.63;;;14.38;100.00
68793;BME280;55778;54.346;10.210;2023-07-31T05:17:51;100187.50;;;14.39;100.00
68793;BME280;55778;54.346;10.210;2023-07-31T05:20:16;100184.09;;;14.51;100.00
68793;BME280;55778;54.346;10.210;2023-07-31T05:22:42;100180.59;;;14.43;100.00
68793;BME280;55778;54.346;10.210;2023-07-31T05:25:07;100186.06;;;14.43;100.00
68793;BME280;55778;54.346;10.210;2023-07-31T05:27:33;100179.66;;;14.50;100.00
68793;BME280;55778;54.346;10.210;2023-07-31T05:29:58;100180.91;;;14.48;100.00
68793;BME280;55778;54.346;10.210;2023-07-31T05:32:24;100170.03;;;14.54;100.00
68793;BME280;55778;54.346;10.210;2023-07-31T05:34:52;100168.69;;;14.50;100.00
68793;BME280;55778;54.346;10.210;2023-07-31T05:37:18;100158.81;;;14.64;100.00
68793;BME280;55778;54.346;10.210;2023-07-31T05:39:44;100155.75;;;14.59;100.00
68793;BME280;55778;54.346;10.210;2023-07-31T05:42:09;100152.56;;;14.70;100.00
68793;BME280;55778;54.346;10.210;2023-07-31T05:44:35;100150.47;;;14.72;100.00
68793;BME280;55778;54.346;10.210;2023-07-31T05:47:00;100155.59;;;14.75;100.00
68793;BME280;55778;54.346;10.210;2023-07-31T05:49:25;100153.16;;;14.80;100.00
68793;BME280;55778;54.346;10.210;2023-07-31T05:51:51;100155.03;;;14.79;100.00
68793;BME280;55778;54.346;10.210;2023-07-31T05:54:16;100151.47;;;14.79;100.00
68793;BME280;55778;54.346;10.210;2023-07-31T05:56:42;100151.47;;;14.79;100.00
68793;BME280;55778;54.346;10.210;2023-07-31T05:59:08;100148.78;;;14.85;100.00
68793;BME280;55778;54.346;10.210;2023-07-31T06:01:34;100137.63;;;14.87;100.00
68793;BME280;55778;54.346;10.210;2023-07-31T06:03:59;100139.34;;;14.88;100.00
68793;BME280;55778;54.346;10.210;2023-07-31T06:06:25;100132.81;;;14.89;100.00
68793;BME280;55778;54.346;10.210;2023-07-31T06:08:50;100123.34;;;14.91;100.00
68793;BME280;55778;54.346;10.210;2023-07-31T06:11:16;100126.78;;;14.93;100.00
68793;BME280;55778;54.346;10.210;2023-07-31T06:13:41;100124.97;;;15.00;100.00
68793;BME280;55778;54.346;10.210;2023-07-31T06:16:06;100119.47;;;15.00;100.00
68793;BME280;55778;54.346;10.210;2023-07-31T06:18:32;100131.00;;;14.96;100.00
68793;BME280;55778;54.346;10.210;2023-07-31T06:20:58;100126.19;;;14.98;100.00
68793;BME280;55778;54.346;10.210;2023-07-31T06:23:23;100134.25;;;14.99;100.00
68793;BME280;55778;54.346;10.210;2023-07-31T06:25:49;100122.59;;;14.97;100.00
68793;BME280;55778;54.346;10.210;2023-07-31T06:28:14;100123.47;;;14.98;100.00
68793;BME280;55778;54.346;10.210;2023-07-31T06:30:40;100119.47;;;15.00;100.00
68793;BME280;55778;54.346;10.210;2023-07-31T06:33:05;100119.78;;;15.05;100.00
68793;BME280;55778;54.346;10.210;2023-07-31T06:35:30;100113.03;;;15.08;100.00
68793;BME280;55778;54.346;10.210;2023-07-31T06:37:56;100119.78;;;15.05;100.00
68793;BME280;55778;54.346;10.210;2023-07-31T06:40:22;100112.09;;;15.15;100.00
68793;BME280;55778;54.346;10.210;2023-07-31T06:42:47;100116.16;;;15.19;100.00
68793;BME280;55778;54.346;10.210;2023-07-31T06:45:12;100111.03;;;15.16;100.00
68793;BME280;55778;54.346;10.210;2023-07-31T06:47:38;100113.59;;;15.18;100.00
68793;BME280;55778;54.346;10.210;2023-07-31T06:50:04;100112.94;;;15.16;100.00
68793;BME280;55778;54.346;10.210;2023-07-31T06:52:30;100116.91;;;15.13;100.00
68793;BME280;55778;54.346;10.210;2023-07-31T06:55:17;100118.34;;;15.09;100.00
68793;BME280;55778;54.346;10.210;2023-07-31T06:57:49;100115.69;;;15.16;100.00
68793;BME280;55778;54.346;10.210;2023-07-31T07:00:15;100119.19;;;15.24;100.00
68793;BME280;55778;54.346;10.210;2023-07-31T07:02:41;100121.25;;;15.22;100.00
68793;BME280;55778;54.346;10.210;2023-07-31T07:05:07;100114.06;;;15.21;100.00
68793;BME280;55778;54.346;10.210;2023-07-31T07:07:33;100111.91;;;15.17;100.00
68793;BME280;55778;54.346;10.210;2023-07-31T07:09:58;100116.44;;;15.24;100.00
68793;BME280;55778;54.346;10.210;2023-07-31T07:12:29;100115.19;;;15.27;100.00
68793;BME280;55778;54.346;10.210;2023-07-31T07:14:55;100110.66;;;15.34;100.00
68793;BME280;55778;54.346;10.210;2023-07-31T07:17:20;100110.31;;;15.37;100.00
68793;BME280;55778;54.346;10.210;2023-07-31T07:19:47;100112.88;;;15.38;100.00
68793;BME280;55778;54.346;10.210;2023-07-31T07:22:13;100108.94;;;15.47;100.00
68793;BME280;55778;54.346;10.210;2023-07-31T07:24:38;100119.72;;;15.49;100.00
68793;BME280;55778;54.346;10.210;2023-07-31T07:27:04;100114.50;;;15.54;100.00
68793;BME280;55778;54.346;10.210;2023-07-31T07:29:29;100110.72;;;15.55;100.00
68793;BME280;55778;54.346;10.210;2023-07-31T07:31:55;100110.53;;;15.56;100.00
68793;BME280;55778;54.346;10.210;2023-07-31T07:34:24;100105.50;;;15.60;100.00
68793;BME280;55778;54.346;10.210;2023-07-31T07:36:49;100103.88;;;15.65;100.00
68793;BME280;55778;54.346;10.210;2023-07-31T07:39:14;100096.09;;;15.69;100.00
68793;BME280;55778;54.346;10.210;2023-07-31T07:41:40;100099.94;;;15.74;100.00
68793;BME280;55778;54.346;10.210;2023-07-31T07:44:05;100096.19;;;15.75;100.00
68793;BME280;55778;54.346;10.210;2023-07-31T07:46:31;100098.50;;;15.78;100.00
68793;BME280;55778;54.346;10.210;2023-07-31T07:48:56;100104.38;;;15.90;100.00
68793;BME280;55778;54.346;10.210;2023-07-31T07:51:22;100092.69;;;15.88;100.00
68793;BME280;55778;54.346;10.210;2023-07-31T07:53:47;100093.28;;;15.83;100.00
68793;BME280;55778;54.346;10.210;2023-07-31T07:56:12;100088.06;;;15.88;100.00
68793;BME280;55778;54.346;10.210;2023-07-31T07:58:38;100092.50;;;15.89;100.00
68793;BME280;55778;54.346;10.210;2023-07-31T08:01:03;100087.28;;;15.73;100.00
68793;BME280;55778;54.346;10.210;2023-07-31T08:03:28;100089.25;;;15.79;100.00
68793;BME280;55778;54.346;10.210;2023-07-31T08:05:58;100086.81;;;15.70;100.00
68793;BME280;55778;54.346;10.210;2023-07-31T08:08:24;100089.16;;;15.73;100.00
68793;BME280;55778;54.346;10.210;2023-07-31T08:10:49;100094.16;;;15.84;100.00
68793;BME280;55778;54.346;10.210;2023-07-31T08:13:14;100086.16;;;15.89;100.00
68793;BME280;55778;54.346;10.210;2023-07-31T08:15:43;100088.31;;;15.93;100.00
68793;BME280;55778;54.346;10.210;2023-07-31T08:18:09;100074.66;;;16.00;100.00
68793;BME280;55778;54.346;10.210;2023-07-31T08:20:34;100082.50;;;16.03;100.00
68793;BME280;55778;54.346;10.210;2023-07-31T08:23:00;100065.69;;;15.91;100.00
68793;BME280;55778;54.346;10.210;2023-07-31T08:25:25;100072.22;;;16.12;100.00
68793;BME280;55778;54.346;10.210;2023-07-31T08:27:50;100067.41;;;16.20;100.00
68793;BME280;55778;54.346;10.210;2023-07-31T08:30:18;100062.97;;;16.19;100.00
68793;BME280;55778;54.346;10.210;2023-07-31T08:32:43;100065.13;;;16.24;100.00
68793;BME280;55778;54.346;10.210;2023-07-31T08:35:09;100064.34;;;16.30;100.00
68793;BME280;55778;54.346;10.210;2023-07-31T08:37:34;100076.72;;;16.19;100.00
68793;BME280;55778;54.346;10.210;2023-07-31T08:40:00;100068.75;;;16.24;100.00
68793;BME280;55778;54.346;10.210;2023-07-31T08:42:25;100073.09;;;16.19;100.00
68793;BME280;55778;54.346;10.210;2023-07-31T08:44:50;100059.56;;;16.17;100.00
68793;BME280;55778;54.346;10.210;2023-07-31T08:47:19;100070.56;;;16.17;100.00
68793;BME280;55778;54.346;10.210;2023-07-31T08:49:46;100064.03;;;16.18;100.00
68793;BME280;55778;54.346;10.210;2023-07-31T08:52:11;100063.44;;;16.23;100.00
68793;BME280;55778;54.346;10.210;2023-07-31T08:54:37;100065.53;;;16.21;100.00
68793;BME280;55778;54.346;10.210;2023-07-31T08:57:05;100072.78;;;16.28;100.00
68793;BME280;55778;54.346;10.210;2023-07-31T08:59:31;100078.16;;;16.36;100.00
68793;BME280;55778;54.346;10.210;2023-07-31T09:02:05;100075.72;;;16.48;100.00
68793;BME280;55778;54.346;10.210;2023-07-31T09:04:31;100073.91;;;16.61;100.00
68793;BME280;55778;54.346;10.210;2023-07-31T09:07:00;100068.16;;;16.56;100.00
68793;BME280;55778;54.346;10.210;2023-07-31T09:09:25;100061.31;;;16.46;100.00
68793;BME280;55778;54.346;10.210;2023-07-31T09:11:51;100049.91;;;16.49;100.00
68793;BME280;55778;54.346;10.210;2023-07-31T09:14:18;100056.69;;;16.53;100.00
68793;BME280;55778;54.346;10.210;2023-07-31T09:16:57;100064.72;;;16.48;100.00
68793;BME280;55778;54.346;10.210;2023-07-31T09:19:32;100065.03;;;16.38;100.00
68793;BME280;55778;54.346;10.210;2023-07-31T09:21:59;100066.75;;;16.39;100.00
68793;BME280;55778;54.346;10.210;2023-07-31T09:24:29;100062.75;;;16.42;100.00
68793;BME280;55778;54.346;10.210;2023-07-31T09:26:55;100060.59;;;16.37;100.00
68793;BME280;55778;54.346;10.210;2023-07-31T09:29:22;100058.50;;;16.39;100.00
68793;BME280;55778;54.346;10.210;2023-07-31T09:31:48;100057.44;;;16.40;100.00
68793;BME280;55778;54.346;10.210;2023-07-31T09:34:13;100051.94;;;16.40;100.00
68793;BME280;55778;54.346;10.210;2023-07-31T09:36:49;100048.09;;;16.35;100.00
68793;BME280;55778;54.346;10.210;2023-07-31T09:39:17;100048.09;;;16.35;100.00
68793;BME280;55778;54.346;10.210;2023-07-31T09:41:53;100032.34;;;16.22;100.00
68793;BME280;55778;54.346;10.210;2023-07-31T09:44:18;100038.53;;;16.31;100.00
68793;BME280;55778;54.346;10.210;2023-07-31T09:46:44;100035.09;;;16.22;100.00
68793;BME280;55778;54.346;10.210;2023-07-31T09:49:11;100033.28;;;16.36;100.00
68793;BME280;55778;54.346;10.210;2023-07-31T09:51:41;100036.19;;;16.28;100.00
68793;BME280;55778;54.346;10.210;2023-07-31T09:54:13;100038.63;;;16.16;100.00
68793;BME280;55778;54.346;10.210;2023-07-31T09:56:50;100041.56;;;16.15;100.00
68793;BME280;55778;54.346;10.210;2023-07-31T09:59:20;100047.28;;;16.13;100.00
68793;BME280;55778;54.346;10.210;2023-07-31T10:01:46;100046.88;;;16.16;100.00
68793;BME280;55778;54.346;10.210;2023-07-31T10:04:12;100048.47;;;16.04;100.00
68793;BME280;55778;54.346;10.210;2023-07-31T10:06:39;100051.13;;;16.19;100.00
68793;BME280;55778;54.346;10.210;2023-07-31T10:09:08;100050.03;;;16.13;100.00
68793;BME280;55778;54.346;10.210;2023-07-31T10:11:41;100045.38;;;16.14;100.00
68793;BME280;55778;54.346;10.210;2023-07-31T10:14:09;100051.31;;;16.17;100.00
68793;BME280;55778;54.346;10.210;2023-07-31T10:16:37;100046.88;;;16.16;100.00
68793;BME280;55778;54.346;10.210;2023-07-31T10:19:03;100040.78;;;16.21;100.00
68793;BME280;55778;54.346;10.210;2023-07-31T10:21:31;100045.81;;;16.17;100.00
68793;BME280;55778;54.346;10.210;2023-07-31T10:24:02;100053.88;;;16.19;100.00
68793;BME280;55778;54.346;10.210;2023-07-31T10:26:28;100054.22;;;16.09;100.00
68793;BME280;55778;54.346;10.210;2023-07-31T10:28:54;100055.81;;;16.25;100.00
68793;BME280;55778;54.346;10.210;2023-07-31T10:31:21;100047.63;;;16.31;100.00
68793;BME280;55778;54.346;10.210;2023-07-31T10:33:46;100057.75;;;16.24;100.00
68793;BME280;55778;54.346;10.210;2023-07-31T10:36:19;100069.72;;;16.17;100.00
68793;BME280;55778;54.346;10.210;2023-07-31T10:38:45;100057.88;;;16.16;100.00
68793;BME280;55778;54.346;10.210;2023-07-31T10:41:12;100063.66;;;16.28;100.00
68793;BME280;55778;54.346;10.210;2023-07-31T10:43:37;100068.47;;;16.19;100.00
68793;BME280;55778;54.346;10.210;2023-07-31T10:46:07;100077.19;;;16.23;100.00
68793;BME280;55778;54.346;10.210;2023-07-31T10:48:38;100059.53;;;16.11;100.00
68793;BME280;55778;54.346;10.210;2023-07-31T10:51:12;100048.91;;;16.29;100.00
68793;BME280;55778;54.346;10.210;2023-07-31T10:53:39;100047.16;;;16.49;100.00
68793;BME280;55778;54.346;10.210;2023-07-31T10:56:07;100046.53;;;16.47;100.00
68793;BME280;55778;54.346;10.210;2023-07-31T10:58:33;100037.81;;;16.43;100.00
68793;BME280;55778;54.346;10.210;2023-07-31T11:01:02;100028.69;;;16.43;100.00
68793;BME280;55778;54.346;10.210;2023-07-31T11:03:46;100038.59;;;16.37;100.00
68793;BME280;55778;54.346;10.210;2023-07-31T11:06:13;100035.22;;;16.42;100.00
68793;BME280;55778;54.346;10.210;2023-07-31T11:08:46;100038.84;;;16.42;100.00
68793;BME280;55778;54.346;10.210;2023-07-31T11:11:17;100030.91;;;16.54;100.00
68793;BME280;55778;54.346;10.210;2023-07-31T11:13:47;100025.81;;;16.51;100.00
68793;BME280;55778;54.346;10.210;2023-07-31T11:16:15;100031.06;;;16.46;100.00
68793;BME280;55778;54.346;10.210;2023-07-31T11:18:43;100015.13;;;16.41;100.00
68793;BME280;55778;54.346;10.210;2023-07-31T11:21:12;100011.19;;;16.44;100.00
68793;BME280;55778;54.346;10.210;2023-07-31T11:23:38;100013.94;;;16.44;100.00
68793;BME280;55778;54.346;10.210;2023-07-31T11:26:05;100027.19;;;16.40;100.00
68793;BME280;55778;54.346;10.210;2023-07-31T11:28:33;100027.19;;;16.40;100.00
68793;BME280;55778;54.346;10.210;2023-07-31T11:30:59;100022.50;;;16.34;100.00
68793;BME280;55778;54.346;10.210;2023-07-31T11:33:25;100034.66;;;16.46;100.00
68793;BME280;55778;54.346;10.210;2023-07-31T11:35:51;100025.34;;;16.47;100.00
68793;BME280;55778;54.346;10.210;2023-07-31T11:38:32;100017.34;;;16.52;100.00
68793;BME280;55778;54.346;10.210;2023-07-31T11:41:00;100007.38;;;16.51;100.00
68793;BME280;55778;54.346;10.210;2023-07-31T11:43:27;100004.31;;;16.40;100.00
68793;BME280;55778;54.346;10.210;2023-07-31T11:45:57;99982.63;;;16.45;100.00
68793;BME280;55778;54.346;10.210;2023-07-31T11:48:25;99985.19;;;16.53;100.00
68793;BME280;55778;54.346;10.210;2023-07-31T11:50:53;99973.78;;;16.56;100.00
68793;BME280;55778;54.346;10.210;2023-07-31T11:53:28;99985.47;;;16.64;100.00
68793;BME280;55778;54.346;10.210;2023-07-31T11:55:54;99988.38;;;16.56;100.00
68793;BME280;55778;54.346;10.210;2023-07-31T11:58:20;99991.75;;;16.52;100.00
68793;BME280;55778;54.346;10.210;2023-07-31T12:00:47;99992.50;;;16.39;100.00
68793;BME280;55778;54.346;10.210;2023-07-31T12:03:13;99994.50;;;16.24;100.00
68793;BME280;55778;54.346;10.210;2023-07-31T12:05:39;99997.19;;;16.18;100.00
68793;BME280;55778;54.346;10.210;2023-07-31T12:08:11;99988.34;;;16.22;100.00
68793;BME280;55778;54.346;10.210;2023-07-31T12:10:40;99976.69;;;16.20;100.00
68793;BME280;55778;54.346;10.210;2023-07-31T12:13:20;99980.69;;;16.18;100.00
68793;BME280;55778;54.346;10.210;2023-07-31T12:15:47;99987.47;;;16.22;100.00
68793;BME280;55778;54.346;10.210;2023-07-31T12:18:14;99988.09;;;16.17;100.00
68793;BME280;55778;54.346;10.210;2023-07-31T12:20:46;99978.81;;;16.18;100.00
68793;BME280;55778;54.346;10.210;2023-07-31T12:25:40;99988.06;;;16.11;100.00
68793;BME280;55778;54.346;10.210;2023-07-31T12:28:07;99985.84;;;15.99;100.00
68793;BME280;55778;54.346;10.210;2023-07-31T12:30:41;99988.69;;;15.85;100.00
68793;BME280;55778;54.346;10.210;2023-07-31T12:33:13;99985.28;;;15.83;100.00
68793;BME280;55778;54.346;10.210;2023-07-31T12:35:42;99982.88;;;15.73;100.00